createdAt,value
2022-08-12T00:02:26.435Z,56.74
2022-08-12T00:05:11.853Z,56.99
2022-08-12T00:07:59.566Z,58.20
2022-08-12T00:10:45.945Z,57.21
2022-08-12T00:13:32.111Z,59.27
2022-08-12T00:16:18.293Z,59.46
2022-08-12T00:19:04.026Z,58.72
2022-08-12T00:21:49.933Z,58.61
2022-08-12T00:24:40.906Z,58.16
2022-08-12T00:27:27.565Z,57.19
2022-08-12T00:30:32.027Z,57.62
2022-08-12T00:33:18.143Z,57.17
2022-08-12T00:36:14.877Z,56.64
2022-08-12T00:39:20.674Z,57.43
2022-08-12T00:42:08.942Z,58.21
2022-08-12T00:44:36.533Z,57.46
2022-08-12T00:47:05.515Z,55.40
2022-08-12T00:49:33.195Z,58.31
2022-08-12T00:52:11.124Z,57.50
2022-08-12T00:54:59.277Z,56.28
2022-08-12T00:57:37.673Z,56.25
2022-08-12T01:00:26.697Z,57.08
2022-08-12T01:02:58.558Z,57.89
2022-08-12T01:05:51.000Z,59.15
2022-08-12T01:08:50.392Z,59.43
2022-08-12T01:11:33.497Z,61.05
2022-08-12T01:14:03.487Z,62.03
2022-08-12T01:16:37.244Z,61.05
2022-08-12T01:19:04.707Z,61.51
2022-08-12T01:22:00.299Z,62.23
2022-08-12T01:25:19.298Z,62.06
2022-08-12T01:27:50.072Z,64.83
2022-08-12T01:30:17.773Z,63.27
2022-08-12T01:32:48.657Z,63.04
2022-08-12T01:35:17.673Z,61.14
2022-08-12T01:38:00.874Z,62.77
2022-08-12T01:40:38.221Z,64.18
2022-08-12T01:43:13.455Z,62.91
2022-08-12T01:46:20.113Z,59.58
2022-08-12T01:49:40.401Z,63.13
2022-08-12T01:52:22.082Z,63.92
2022-08-12T01:54:52.342Z,66.85
2022-08-12T01:57:57.741Z,66.10
2022-08-12T02:00:54.789Z,62.97
2022-08-12T02:04:27.161Z,64.62
2022-08-12T02:07:59.360Z,66.85
2022-08-12T02:11:04.000Z,63.06
2022-08-12T02:13:50.068Z,63.26
2022-08-12T02:16:42.112Z,65.23
2022-08-12T02:20:01.750Z,64.08
2022-08-12T02:22:41.497Z,59.89
2022-08-12T02:25:18.894Z,62.62
2022-08-12T02:27:52.471Z,58.95
2022-08-12T02:30:26.783Z,57.69
2022-08-12T02:33:09.431Z,59.61
2022-08-12T02:35:39.403Z,58.52
2022-08-12T02:38:10.869Z,59.30
2022-08-12T02:40:45.443Z,60.49
2022-08-12T02:43:46.729Z,59.27
2022-08-12T02:46:25.993Z,59.73
2022-08-12T02:49:03.703Z,57.58
2022-08-12T02:51:39.091Z,58.11
2022-08-12T02:54:07.484Z,59.47
2022-08-12T02:56:41.746Z,58.04
2022-08-12T02:59:16.987Z,59.55
2022-08-12T03:01:53.598Z,61.67
2022-08-12T03:04:43.819Z,64.75
2022-08-12T03:07:31.005Z,63.38
2022-08-12T03:10:23.071Z,67.50
2022-08-12T03:13:07.410Z,65.13
2022-08-12T03:15:36.032Z,67.02
2022-08-12T03:18:26.914Z,68.34
2022-08-12T03:20:59.200Z,67.98
2022-08-12T03:23:31.104Z,67.94
2022-08-12T03:26:02.464Z,68.13
2022-08-12T03:28:52.115Z,69.47
2022-08-12T03:31:28.383Z,68.74
2022-08-12T03:34:12.559Z,69.04
2022-08-12T03:36:42.359Z,68.43
2022-08-12T03:39:17.871Z,67.35
2022-08-12T03:42:06.824Z,67.04
2022-08-12T03:45:52.321Z,68.62
2022-08-12T03:48:39.210Z,68.54
2022-08-12T03:51:25.674Z,67.47
2022-08-12T03:54:14.215Z,69.49
2022-08-12T03:57:00.034Z,69.76
2022-08-12T03:59:45.512Z,70.36
2022-08-12T04:02:16.115Z,70.46
2022-08-12T04:04:45.614Z,70.14
2022-08-12T04:07:14.655Z,70.51
2022-08-12T04:09:46.323Z,69.57
2022-08-12T04:12:33.502Z,69.24
2022-08-12T04:15:02.288Z,68.60
2022-08-12T04:17:30.306Z,69.05
2022-08-12T04:19:59.196Z,69.42
2022-08-12T04:22:29.705Z,69.80
2022-08-12T04:25:01.351Z,68.03
2022-08-12T04:27:31.620Z,65.06
2022-08-12T04:30:30.946Z,67.14
2022-08-12T04:32:53.789Z,62.91
2022-08-12T04:35:21.475Z,62.62
2022-08-12T04:37:58.506Z,62.35
2022-08-12T04:40:31.972Z,61.60
2022-08-12T04:43:03.486Z,62.62
2022-08-12T04:45:34.776Z,64.61
2022-08-12T04:48:06.662Z,64.03
2022-08-12T04:50:38.208Z,63.10
2022-08-12T04:53:09.203Z,62.86
2022-08-12T04:55:40.080Z,64.73
2022-08-12T04:58:12.152Z,63.54
2022-08-12T05:00:41.022Z,61.96
2022-08-12T05:03:17.340Z,61.17
2022-08-12T05:05:53.562Z,59.92
2022-08-12T05:08:22.442Z,58.31
2022-08-12T05:10:50.291Z,57.67
2022-08-12T05:13:22.497Z,57.78
2022-08-12T05:16:04.803Z,56.26
2022-08-12T05:18:39.734Z,55.07
2022-08-12T05:21:11.165Z,55.36
2022-08-12T05:23:42.727Z,54.42
2022-08-12T05:26:10.792Z,53.75
2022-08-12T05:28:38.254Z,53.24
2022-08-12T05:31:08.083Z,52.56
2022-08-12T05:33:40.034Z,51.87
2022-08-12T05:36:15.673Z,51.75
2022-08-12T05:38:57.191Z,51.39
2022-08-12T05:41:32.066Z,49.75
2022-08-12T05:44:17.845Z,51.60
2022-08-12T05:46:46.509Z,50.47
2022-08-12T05:49:13.694Z,49.40
2022-08-12T05:51:48.137Z,49.79
2022-08-12T05:54:16.495Z,48.67
2022-08-12T05:56:43.504Z,47.30
2022-08-12T05:59:12.499Z,47.73
2022-08-12T06:02:08.852Z,47.76
2022-08-12T06:04:29.453Z,47.33
2022-08-12T06:06:56.579Z,47.36
2022-08-12T06:09:28.631Z,46.05
2022-08-12T06:12:04.676Z,45.28
2022-08-12T06:14:39.377Z,44.51
2022-08-12T06:17:08.907Z,47.29
2022-08-12T06:20:27.734Z,45.58
2022-08-12T06:22:35.646Z,42.87
2022-08-12T06:25:02.999Z,45.54
2022-08-12T06:27:29.993Z,44.46
2022-08-12T06:30:07.318Z,44.57
2022-08-12T06:32:42.723Z,44.08
2022-08-12T06:35:26.769Z,44.08
2022-08-12T06:38:25.266Z,43.68
2022-08-12T06:41:18.029Z,42.90
2022-08-12T06:44:07.126Z,42.73
2022-08-12T06:46:36.635Z,43.29
2022-08-12T06:49:04.505Z,41.78
2022-08-12T06:51:32.696Z,42.37
2022-08-12T06:54:02.886Z,41.72
2022-08-12T06:57:00.224Z,41.15
2022-08-12T06:59:21.103Z,40.51
2022-08-12T07:01:50.869Z,40.45
2022-08-12T07:04:37.205Z,41.31
2022-08-12T07:07:09.870Z,40.76
2022-08-12T07:10:04.725Z,40.74
2022-08-12T07:12:30.290Z,40.07
2022-08-12T07:14:59.782Z,40.63
2022-08-12T07:17:35.854Z,39.71
2022-08-12T07:20:29.661Z,38.99
2022-08-12T07:22:59.848Z,39.71
2022-08-12T07:25:37.599Z,39.80
2022-08-12T07:28:16.775Z,38.99
2022-08-12T07:30:49.115Z,38.77
2022-08-12T07:33:18.774Z,38.10
2022-08-12T07:35:47.839Z,38.38
2022-08-12T07:38:40.048Z,38.33
2022-08-12T07:41:20.242Z,38.56
2022-08-12T07:44:05.221Z,38.85
2022-08-12T07:46:43.224Z,38.14
2022-08-12T07:49:15.807Z,37.51
2022-08-12T07:51:44.226Z,36.90
2022-08-12T07:54:12.957Z,36.89
2022-08-12T07:56:43.813Z,36.87
2022-08-12T07:59:11.595Z,36.90
2022-08-12T08:01:39.639Z,36.67
2022-08-12T08:04:26.406Z,36.44
2022-08-12T08:06:54.588Z,36.91
2022-08-12T08:09:24.303Z,35.36
2022-08-12T08:12:18.895Z,35.65
2022-08-12T08:14:48.365Z,36.33
2022-08-12T08:17:17.664Z,36.10
2022-08-12T08:20:03.181Z,36.81
2022-08-12T08:22:41.302Z,35.45
2022-08-12T08:25:34.503Z,35.03
2022-08-12T08:28:12.464Z,35.11
2022-08-12T08:30:44.324Z,35.48
2022-08-12T08:33:23.235Z,33.87
2022-08-12T08:36:03.043Z,33.93
2022-08-12T08:38:33.284Z,34.82
2022-08-12T08:42:17.367Z,33.29
2022-08-12T08:44:11.674Z,33.18
2022-08-12T08:46:41.077Z,33.60
2022-08-12T08:49:08.500Z,34.78
2022-08-12T08:51:36.396Z,32.70
2022-08-12T08:54:03.497Z,32.67
2022-08-12T08:56:30.514Z,32.78
2022-08-12T08:58:57.995Z,32.11
2022-08-12T09:01:26.877Z,31.86
2022-08-12T09:05:09.924Z,31.92
2022-08-12T09:06:56.725Z,31.38
2022-08-12T09:09:24.777Z,31.81
2022-08-12T09:12:27.277Z,31.21
2022-08-12T09:14:54.621Z,31.29
2022-08-12T09:17:22.276Z,29.79
2022-08-12T09:19:55.094Z,30.99
2022-08-12T09:22:48.967Z,29.96
2022-08-12T09:25:25.475Z,30.26
2022-08-12T09:28:18.087Z,30.85
2022-08-12T09:30:51.057Z,32.06
2022-08-12T09:34:25.366Z,30.92
2022-08-12T09:36:05.638Z,30.48
2022-08-12T09:38:36.859Z,31.44
2022-08-12T09:42:32.975Z,31.12
2022-08-12T09:44:38.166Z,30.07
2022-08-12T09:47:01.196Z,30.28
2022-08-12T09:49:28.551Z,29.75
2022-08-12T09:51:57.359Z,29.60
2022-08-12T09:54:32.759Z,30.81
2022-08-12T09:58:44.740Z,30.21
2022-08-12T10:00:14.953Z,29.10
2022-08-12T10:03:32.734Z,30.45
2022-08-12T10:06:26.326Z,29.51
2022-08-12T10:08:52.505Z,28.69
2022-08-12T10:12:09.797Z,27.69
2022-08-12T10:14:34.486Z,28.65
2022-08-12T10:17:02.273Z,28.64
2022-08-12T10:19:36.313Z,29.18
2022-08-12T10:22:06.024Z,28.56
2022-08-12T10:25:17.161Z,28.15
2022-08-12T10:28:07.052Z,27.79
2022-08-12T10:30:43.916Z,28.04
2022-08-12T10:33:18.299Z,26.95
2022-08-12T10:35:46.416Z,27.54
2022-08-12T10:38:34.303Z,27.04
2022-08-12T10:41:21.092Z,25.87
2022-08-12T10:43:54.459Z,27.72
2022-08-12T10:46:24.348Z,27.30
2022-08-12T10:49:06.511Z,26.86
2022-08-12T10:52:02.648Z,28.01
2022-08-12T10:54:34.670Z,27.21
2022-08-12T10:57:03.469Z,28.43
2022-08-12T10:59:58.202Z,25.93
2022-08-12T11:04:23.462Z,26.99
2022-08-12T11:07:03.059Z,26.84
2022-08-12T11:08:34.548Z,26.79
2022-08-12T11:10:41.744Z,25.56
2022-08-12T11:13:12.920Z,24.47
2022-08-12T11:16:19.043Z,26.40
2022-08-12T11:18:28.231Z,25.24
2022-08-12T11:20:57.815Z,25.20
2022-08-12T11:23:36.672Z,25.94
2022-08-12T11:26:08.332Z,26.20
2022-08-12T11:28:38.210Z,26.68
2022-08-12T11:31:12.414Z,25.21
2022-08-12T11:34:06.422Z,26.73
2022-08-12T11:36:31.039Z,28.21
2022-08-12T11:38:58.405Z,26.91
2022-08-12T11:41:34.863Z,26.52
2022-08-12T11:44:35.375Z,27.04
2022-08-12T11:46:53.527Z,25.16
2022-08-12T11:49:30.969Z,25.51
2022-08-12T11:52:01.910Z,25.29
2022-08-12T11:54:30.183Z,24.99
2022-08-12T11:57:01.949Z,22.95
2022-08-12T12:02:20.973Z,26.01
2022-08-12T12:04:53.976Z,26.18
2022-08-12T12:08:39.092Z,27.34
2022-08-12T12:10:15.880Z,27.03
2022-08-12T12:12:49.746Z,26.38
2022-08-12T12:15:25.337Z,26.77
2022-08-12T12:17:54.944Z,26.81
2022-08-12T12:20:26.190Z,24.38
2022-08-12T12:22:57.549Z,25.89
2022-08-12T12:26:07.412Z,26.70
2022-08-12T12:28:37.657Z,27.36
2022-08-12T12:31:04.174Z,28.16
2022-08-12T12:33:56.802Z,25.74
2022-08-12T12:36:24.020Z,25.63
2022-08-12T12:38:56.250Z,26.27
2022-08-12T12:41:37.135Z,26.01
2022-08-12T12:44:13.457Z,25.66
2022-08-12T12:46:54.785Z,26.03
2022-08-12T12:49:26.094Z,25.59
2022-08-12T12:52:19.931Z,25.23
2022-08-12T12:54:52.476Z,23.22
2022-08-12T12:57:21.478Z,23.41
2022-08-12T13:00:15.996Z,24.32
2022-08-12T13:02:54.057Z,23.82
2022-08-12T13:05:27.789Z,22.26
2022-08-12T13:08:01.442Z,22.97
2022-08-12T13:10:36.910Z,24.55
2022-08-12T13:14:07.122Z,23.62
2022-08-12T13:15:59.297Z,23.14
2022-08-12T13:18:33.423Z,21.81
2022-08-12T13:21:02.157Z,23.02
2022-08-12T13:23:36.570Z,22.84
2022-08-12T13:26:04.926Z,24.68
2022-08-12T13:28:32.681Z,24.67
2022-08-12T13:31:00.441Z,25.51
2022-08-12T13:33:29.368Z,24.15
2022-08-12T13:36:18.237Z,23.87
2022-08-12T13:38:52.112Z,23.59
2022-08-12T13:41:33.675Z,24.56
2022-08-12T13:44:10.633Z,24.95
2022-08-12T13:46:40.846Z,24.81
2022-08-12T13:49:11.508Z,24.82
2022-08-12T13:51:53.769Z,23.70
2022-08-12T13:54:21.247Z,25.08
2022-08-12T13:56:49.961Z,24.52
2022-08-12T13:59:23.743Z,24.99
2022-08-12T14:01:52.110Z,24.35
2022-08-12T14:04:19.223Z,24.28
2022-08-12T14:06:50.516Z,23.07
2022-08-12T14:09:19.933Z,24.03
2022-08-12T14:11:58.455Z,25.92
2022-08-12T14:14:31.148Z,22.97
2022-08-12T14:17:05.198Z,23.34
2022-08-12T14:19:37.608Z,25.39
2022-08-12T14:22:06.678Z,24.90
2022-08-12T14:24:40.295Z,26.49
2022-08-12T14:27:12.777Z,22.08
2022-08-12T14:30:04.080Z,23.13
2022-08-12T14:32:36.653Z,25.22
2022-08-12T14:35:09.726Z,26.07
2022-08-12T14:37:57.323Z,24.97
2022-08-12T14:40:29.265Z,26.45
2022-08-12T14:43:00.327Z,27.63
2022-08-12T14:45:44.367Z,24.53
2022-08-12T14:48:18.631Z,24.56
2022-08-12T14:51:09.842Z,25.74
2022-08-12T14:59:56.691Z,25.09
2022-08-12T15:02:22.108Z,25.12
2022-08-12T15:04:59.726Z,25.30
2022-08-12T15:07:34.183Z,25.65
2022-08-12T15:10:24.968Z,23.53
2022-08-12T15:13:06.970Z,24.02
2022-08-12T15:15:44.090Z,25.15
2022-08-12T15:18:21.563Z,24.55
2022-08-12T15:20:54.637Z,25.29
2022-08-12T15:23:33.119Z,25.48
2022-08-12T15:26:21.260Z,23.52
2022-08-12T15:28:55.703Z,25.46
2022-08-12T15:31:28.148Z,23.23
2022-08-12T15:34:13.357Z,25.02
2022-08-12T15:36:54.862Z,25.01
2022-08-12T15:39:22.529Z,25.43
2022-08-12T15:41:55.248Z,24.47
2022-08-12T15:44:42.186Z,25.29
2022-08-12T15:47:10.282Z,25.96
2022-08-12T15:49:54.547Z,27.41
2022-08-12T15:52:28.594Z,27.32
2022-08-12T15:54:59.401Z,27.70
2022-08-12T15:57:33.725Z,26.89
2022-08-12T16:00:07.639Z,27.19
2022-08-12T16:02:51.287Z,28.18
2022-08-12T16:06:11.987Z,27.88
2022-08-12T16:08:17.102Z,28.51
2022-08-12T16:10:45.784Z,27.96
2022-08-12T16:13:32.334Z,27.72
2022-08-12T16:16:22.503Z,26.76
2022-08-12T16:18:58.656Z,26.99
2022-08-12T16:21:52.127Z,27.36
2022-08-12T16:24:18.571Z,27.23
2022-08-12T16:26:51.259Z,26.85
2022-08-12T16:29:29.360Z,27.37
2022-08-12T16:32:16.377Z,27.29
2022-08-12T16:34:55.998Z,27.63
2022-08-12T16:37:32.567Z,28.20
2022-08-12T16:40:06.369Z,29.24
2022-08-12T16:42:42.045Z,28.15
2022-08-12T16:45:22.950Z,29.48
2022-08-12T16:48:01.266Z,29.15
2022-08-12T16:50:30.631Z,28.90
2022-08-12T16:53:03.451Z,28.53
2022-08-12T16:55:41.834Z,28.73
2022-08-12T16:58:28.208Z,29.28
2022-08-12T17:01:01.823Z,30.23
2022-08-12T17:03:32.551Z,30.62
2022-08-12T17:06:06.396Z,29.70
2022-08-12T17:08:34.077Z,31.04
2022-08-12T17:11:01.214Z,30.25
2022-08-12T17:13:29.208Z,30.71
2022-08-12T17:16:06.301Z,31.18
2022-08-12T17:18:56.945Z,30.81
2022-08-12T17:21:40.886Z,31.05
2022-08-12T17:24:15.310Z,31.04
2022-08-12T17:26:45.055Z,31.74
2022-08-12T17:29:23.885Z,31.58
2022-08-12T17:32:02.743Z,30.85
2022-08-12T17:34:49.261Z,31.01
2022-08-12T17:37:16.929Z,31.68
2022-08-12T17:40:16.018Z,31.91
2022-08-12T17:42:35.647Z,32.57
2022-08-12T17:45:17.254Z,32.56
2022-08-12T17:48:01.650Z,32.47
2022-08-12T17:50:44.562Z,32.60
2022-08-12T17:53:18.850Z,32.75
2022-08-12T17:55:51.340Z,33.40
2022-08-12T17:58:35.738Z,32.37
2022-08-12T18:01:11.548Z,32.90
2022-08-12T18:04:05.292Z,32.62
2022-08-12T18:06:28.399Z,33.25
2022-08-12T18:08:59.388Z,33.32
2022-08-12T18:12:04.051Z,33.28
2022-08-12T18:14:36.984Z,33.65
2022-08-12T18:17:08.619Z,34.79
2022-08-12T18:20:05.384Z,33.61
2022-08-12T18:22:40.850Z,34.78
2022-08-12T18:26:12.381Z,33.75
2022-08-12T18:28:16.419Z,34.04
2022-08-12T18:30:52.225Z,34.51
2022-08-12T18:33:24.949Z,33.92
2022-08-12T18:35:55.699Z,33.97
2022-08-12T18:38:25.797Z,34.96
2022-08-12T18:41:17.537Z,35.68
2022-08-12T18:44:02.558Z,34.85
2022-08-12T18:46:54.149Z,35.87
2022-08-12T18:49:38.053Z,36.52
2022-08-12T18:52:11.698Z,36.26
2022-08-12T18:54:54.112Z,35.32
2022-08-12T18:58:06.794Z,37.34
2022-08-12T19:00:21.286Z,36.43
2022-08-12T19:02:55.650Z,35.57
2022-08-12T19:05:52.707Z,36.73
2022-08-12T19:08:13.762Z,37.26
2022-08-12T19:10:50.347Z,38.21
2022-08-12T19:13:39.807Z,37.21
2022-08-12T19:16:10.755Z,37.42
2022-08-12T19:18:44.572Z,37.66
2022-08-12T19:21:16.123Z,37.78
2022-08-12T19:24:04.695Z,39.23
2022-08-12T19:26:35.016Z,40.17
2022-08-12T19:29:05.029Z,43.17
2022-08-12T19:31:58.265Z,42.80
2022-08-12T19:35:32.939Z,41.21
2022-08-12T19:38:02.737Z,41.79
2022-08-12T19:40:32.679Z,40.98
2022-08-12T19:43:18.915Z,40.08
2022-08-12T19:45:51.197Z,40.68
2022-08-12T19:48:22.594Z,39.09
2022-08-12T19:50:56.585Z,39.46
2022-08-12T19:53:27.595Z,40.33
2022-08-12T19:55:57.520Z,40.04
2022-08-12T19:58:25.522Z,41.25
2022-08-12T20:00:55.324Z,40.51
2022-08-12T20:03:39.246Z,40.95
2022-08-12T20:06:13.907Z,40.48
2022-08-12T20:08:49.254Z,40.68
2022-08-12T20:12:10.325Z,40.65
2022-08-12T20:14:19.693Z,41.88
2022-08-12T20:16:56.436Z,41.08
2022-08-12T20:20:01.052Z,41.02
2022-08-12T20:22:31.494Z,40.91
2022-08-12T20:25:07.510Z,41.23
2022-08-12T20:28:04.104Z,41.45
2022-08-12T20:30:52.492Z,42.35
2022-08-12T20:33:17.309Z,41.35
2022-08-12T20:36:12.818Z,44.10
2022-08-12T20:38:38.047Z,43.07
2022-08-12T20:41:16.577Z,41.59
2022-08-12T20:43:52.086Z,43.93
2022-08-12T20:46:21.054Z,45.07
2022-08-12T20:48:55.267Z,48.23
2022-08-12T20:51:50.852Z,44.89
2022-08-12T20:54:16.657Z,43.69
2022-08-12T20:56:45.392Z,44.86
2022-08-12T20:59:20.230Z,42.76
2022-08-12T21:01:49.297Z,44.50
2022-08-12T21:04:40.675Z,42.73
2022-08-12T21:07:13.742Z,42.82
2022-08-12T21:09:47.399Z,44.28
2022-08-12T21:12:27.718Z,44.78
2022-08-12T21:15:16.998Z,44.58
2022-08-12T21:18:10.914Z,43.70
2022-08-12T21:20:53.236Z,43.91
2022-08-12T21:23:22.652Z,44.95
2022-08-12T21:25:53.753Z,45.66
2022-08-12T21:28:30.934Z,44.28
2022-08-12T21:32:35.306Z,46.04
2022-08-12T21:34:06.508Z,45.40
2022-08-12T21:36:40.265Z,46.09
2022-08-12T21:39:19.280Z,45.69
2022-08-12T21:41:54.373Z,44.95
2022-08-12T21:45:44.345Z,46.33
2022-08-12T21:47:20.871Z,47.31
2022-08-12T21:50:02.232Z,45.51
2022-08-12T21:52:48.858Z,46.69
2022-08-12T21:55:18.761Z,46.71
2022-08-12T21:57:54.540Z,47.82
2022-08-12T22:00:34.212Z,46.74
2022-08-12T22:04:04.041Z,47.97
2022-08-12T22:06:25.967Z,46.78
2022-08-12T22:09:03.839Z,47.31
2022-08-12T22:11:41.565Z,47.93
2022-08-12T22:14:21.395Z,47.23
2022-08-12T22:16:54.644Z,48.38
2022-08-12T22:19:23.435Z,47.94
2022-08-12T22:21:54.685Z,48.21
2022-08-12T22:24:27.049Z,50.07
2022-08-12T22:27:23.007Z,50.11
2022-08-12T22:30:16.674Z,51.96
2022-08-12T22:32:49.710Z,53.61
2022-08-12T22:35:56.624Z,51.83
2022-08-12T22:38:25.437Z,49.75
2022-08-12T22:41:06.494Z,51.01
2022-08-12T22:44:00.522Z,51.76
2022-08-12T22:46:51.985Z,48.95
2022-08-12T22:49:37.079Z,49.02
2022-08-12T22:52:23.062Z,48.05
2022-08-12T22:55:02.835Z,49.65
2022-08-12T22:57:53.733Z,49.26
2022-08-12T23:00:24.097Z,50.45
2022-08-12T23:02:59.335Z,49.98
2022-08-12T23:05:57.147Z,50.52
2022-08-12T23:08:29.613Z,50.73
2022-08-12T23:10:59.389Z,50.23
2022-08-12T23:13:45.896Z,50.60
2022-08-12T23:16:28.619Z,50.72
2022-08-12T23:19:17.810Z,50.81
2022-08-12T23:22:06.142Z,50.90
2022-08-12T23:24:56.242Z,49.88
2022-08-12T23:27:51.731Z,52.00
2022-08-12T23:30:32.036Z,52.23
2022-08-12T23:33:13.022Z,51.14
2022-08-12T23:35:59.422Z,52.55
2022-08-12T23:38:34.551Z,51.84
2022-08-12T23:41:05.035Z,52.72
2022-08-12T23:43:39.279Z,51.75
2022-08-12T23:46:18.678Z,51.80
2022-08-12T23:48:48.095Z,52.44
2022-08-12T23:51:25.938Z,52.56
2022-08-12T23:54:07.062Z,51.90
2022-08-12T23:56:37.173Z,53.29
2022-08-12T23:59:09.554Z,51.49
